Time;durP1;ratioP1;P1;durP2;ratioP2;P2;SDS_P1;SDS_P2;PMS_P1;PMS_P2;Temp;Humidity;BMP_temperature;BMP_pressure;BME280_temperature;BME280_humidity;BME280_pressure;Samples;Min_cycle;Max_cycle;Signal;HPM_P1;HPM_P2
2022/10/03 00:00:30;;;;;;;;;;;11.80;90.10;;;;;;5021312;28;19976;-64
2022/10/03 00:03:20;;;;;;;;;;;11.70;90.00;;;;;;5017450;28;19933;-62
2022/10/03 00:06:01;;;;;;;;;;;11.80;90.00;;;;;;5012948;28;19936;-63
2022/10/03 00:08:43;;;;;;;;;;;11.70;90.10;;;;;;5016808;28;19925;-63
2022/10/03 00:11:22;;;;;;;;;;;11.70;90.00;;;;;;5036789;28;19925;-64
2022/10/03 00:13:58;;;;;;;;;;;11.70;90.00;;;;;;5030759;28;20016;-64
2022/10/03 00:16:35;;;;;;;;;;;11.70;90.00;;;;;;5025677;28;20122;-64
2022/10/03 00:19:05;;;;;;;;;;;11.70;89.90;;;;;;5040132;28;19928;-61
2022/10/03 00:21:39;;;;;;;;;;;11.70;89.90;;;;;;5034450;28;19932;-63
2022/10/03 00:24:13;;;;;;;;;;;11.70;89.90;;;;;;5040589;28;20314;-63
2022/10/03 00:26:47;;;;;;;;;;;11.70;90.00;;;;;;5019519;28;19932;-64
2022/10/03 00:29:20;;;;;;;;;;;11.70;90.00;;;;;;5013093;28;20338;-64
2022/10/03 00:31:52;;;;;;;;;;;11.70;90.10;;;;;;5031608;28;19941;-63
2022/10/03 00:34:25;;;;;;;;;;;11.70;90.00;;;;;;5029035;28;19925;-64
2022/10/03 00:36:59;;;;;;;;;;;11.70;90.00;;;;;;5036822;28;19972;-64
2022/10/03 00:39:33;;;;;;;;;;;11.70;90.00;;;;;;5038083;28;20298;-64
2022/10/03 00:42:12;;;;;;;;;;;11.70;89.80;;;;;;5038756;28;20282;-64
2022/10/03 00:44:49;;;;;;;;;;;11.70;89.60;;;;;;5035176;28;19929;-62
2022/10/03 00:47:28;;;;;;;;;;;11.70;89.70;;;;;;5034121;28;19948;-64
2022/10/03 00:50:12;;;;;;;;;;;11.70;89.50;;;;;;5035030;28;20438;-62
2022/10/03 00:52:48;;;;;;;;;;;11.70;89.50;;;;;;5034319;28;19995;-63
2022/10/03 00:55:18;;;;;;;;;;;11.70;89.70;;;;;;5031410;28;19928;-62
2022/10/03 00:57:58;;;;;;;;;;;11.60;89.70;;;;;;5038394;28;19929;-63
2022/10/03 01:00:27;;;;;;;;;;;11.60;89.80;;;;;;5012429;28;19937;-64
2022/10/03 01:03:15;;;;;;;;;;;11.60;89.80;;;;;;5020249;28;19928;-63
2022/10/03 01:05:49;;;;;;;;;;;11.60;89.80;;;;;;5038115;28;19925;-64
2022/10/03 01:08:25;;;;;;;;;;;11.60;89.80;;;;;;5037559;28;20051;-64
2022/10/03 01:10:55;;;;;;;;;;;11.50;89.90;;;;;;5037864;28;20549;-64
2022/10/03 01:13:31;;;;;;;;;;;11.60;89.90;;;;;;5034790;28;20160;-63
2022/10/03 01:16:03;;;;;;;;;;;11.60;89.90;;;;;;5042003;28;19925;-63
2022/10/03 01:18:38;;;;;;;;;;;11.50;89.90;;;;;;5042351;28;19995;-63
2022/10/03 01:21:11;;;;;;;;;;;11.50;89.90;;;;;;5040615;28;19929;-63
2022/10/03 01:23:41;;;;;;;;;;;11.50;89.90;;;;;;5037153;28;19955;-62
2022/10/03 01:26:21;;;;;;;;;;;11.50;89.90;;;;;;5042206;28;20307;-64
2022/10/03 01:31:41;;;;;;;;;;;11.50;89.90;;;;;;5042281;28;19929;-63
2022/10/03 01:34:12;;;;;;;;;;;11.50;89.90;;;;;;5037736;28;19925;-64
2022/10/03 01:36:44;;;;;;;;;;;11.50;90.00;;;;;;5042025;28;20386;-63
2022/10/03 01:39:15;;;;;;;;;;;11.50;90.10;;;;;;5045514;28;20341;-63
2022/10/03 01:41:48;;;;;;;;;;;11.40;90.10;;;;;;5041965;28;19928;-62
2022/10/03 01:44:21;;;;;;;;;;;11.50;90.20;;;;;;5041325;28;19936;-63
2022/10/03 01:46:52;;;;;;;;;;;11.40;90.20;;;;;;5041207;28;20405;-63
2022/10/03 01:49:24;;;;;;;;;;;11.40;90.20;;;;;;5038024;28;20016;-63
2022/10/03 01:51:55;;;;;;;;;;;11.40;90.20;;;;;;5028012;28;19926;-63
2022/10/03 01:54:30;;;;;;;;;;;11.40;90.30;;;;;;5023508;28;19929;-63
2022/10/03 01:57:01;;;;;;;;;;;11.40;90.10;;;;;;5014275;28;19925;-63
2022/10/03 01:59:34;;;;;;;;;;;11.40;90.20;;;;;;5017591;28;19960;-63
2022/10/03 02:02:02;;;;;;;;;;;11.30;90.40;;;;;;5015451;28;19933;-62
2022/10/03 02:04:36;;;;;;;;;;;11.30;90.40;;;;;;5026345;28;19924;-64
2022/10/03 02:07:07;;;;;;;;;;;11.30;90.50;;;;;;5022095;28;19934;-62
2022/10/03 02:09:36;;;;;;;;;;;11.30;90.40;;;;;;5019419;28;19933;-61
2022/10/03 02:12:08;;;;;;;;;;;11.30;90.50;;;;;;5007079;28;19929;-63
2022/10/03 02:14:43;;;;;;;;;;;11.20;90.50;;;;;;5027858;28;19933;-62
2022/10/03 02:17:16;;;;;;;;;;;11.30;90.30;;;;;;5035101;28;19928;-62
2022/10/03 02:19:46;;;;;;;;;;;11.30;90.10;;;;;;5051331;28;19929;-64
2022/10/03 02:22:16;;;;;;;;;;;11.20;90.10;;;;;;5028296;28;19929;-64
2022/10/03 02:24:46;;;;;;;;;;;11.20;89.80;;;;;;5044877;28;20290;-63
2022/10/03 02:27:33;;;;;;;;;;;11.20;89.80;;;;;;5040683;28;19963;-63
2022/10/03 02:30:18;;;;;;;;;;;11.20;89.80;;;;;;5029156;28;19928;-63
2022/10/03 02:33:14;;;;;;;;;;;11.10;89.90;;;;;;5040839;28;19925;-62
2022/10/03 02:35:59;;;;;;;;;;;11.00;89.90;;;;;;5041337;28;19925;-63
2022/10/03 02:38:37;;;;;;;;;;;11.00;89.90;;;;;;5044211;28;19955;-63
2022/10/03 02:41:12;;;;;;;;;;;11.00;90.00;;;;;;5040438;28;19933;-63
2022/10/03 02:44:09;;;;;;;;;;;10.90;90.00;;;;;;5034632;28;19951;-63
2022/10/03 02:46:57;;;;;;;;;;;10.90;89.90;;;;;;5034272;28;19925;-61
2022/10/03 02:49:47;;;;;;;;;;;10.90;90.00;;;;;;5034517;28;19929;-62
2022/10/03 02:52:25;;;;;;;;;;;10.90;89.90;;;;;;5042493;28;19987;-63
2022/10/03 02:54:56;;;;;;;;;;;10.90;89.80;;;;;;5043784;28;19933;-63
2022/10/03 02:57:44;;;;;;;;;;;10.90;89.80;;;;;;5042673;28;20594;-63
2022/10/03 03:00:17;;;;;;;;;;;11.00;89.80;;;;;;5049177;28;19928;-62
2022/10/03 03:03:00;;;;;;;;;;;11.10;89.70;;;;;;5036532;28;20291;-63
2022/10/03 03:05:36;;;;;;;;;;;11.10;89.60;;;;;;5043354;28;20022;-63
2022/10/03 03:08:18;;;;;;;;;;;11.00;89.50;;;;;;5041138;28;20318;-63
2022/10/03 03:11:07;;;;;;;;;;;10.90;89.60;;;;;;5042589;28;19936;-63
2022/10/03 03:13:48;;;;;;;;;;;10.90;89.70;;;;;;5042155;28;19925;-62
2022/10/03 03:16:33;;;;;;;;;;;11.00;89.70;;;;;;5041957;28;20404;-63
2022/10/03 03:19:09;;;;;;;;;;;10.90;89.60;;;;;;5038468;28;19978;-63
2022/10/03 03:21:41;;;;;;;;;;;10.90;89.60;;;;;;5039951;28;19926;-63
2022/10/03 03:24:19;;;;;;;;;;;10.90;89.90;;;;;;5038476;28;19928;-63
2022/10/03 03:27:03;;;;;;;;;;;10.90;89.80;;;;;;5037704;28;19925;-62
2022/10/03 03:29:36;;;;;;;;;;;10.90;89.70;;;;;;5019980;28;19938;-63
2022/10/03 03:32:07;;;;;;;;;;;10.90;89.80;;;;;;5013382;28;19930;-63
2022/10/03 03:34:41;;;;;;;;;;;10.90;89.80;;;;;;5021765;28;19961;-63
2022/10/03 03:37:10;;;;;;;;;;;10.90;89.70;;;;;;5026245;28;19993;-63
2022/10/03 03:39:49;;;;;;;;;;;10.90;89.70;;;;;;5021943;28;19925;-63
2022/10/03 03:42:34;;;;;;;;;;;10.90;89.70;;;;;;5018074;28;19929;-61
2022/10/03 03:45:17;;;;;;;;;;;10.80;89.60;;;;;;5018848;28;19925;-63
2022/10/03 03:47:54;;;;;;;;;;;10.80;89.60;;;;;;5015728;28;20424;-62
2022/10/03 03:50:38;;;;;;;;;;;10.80;89.70;;;;;;5025318;28;19925;-62
2022/10/03 03:53:13;;;;;;;;;;;10.80;89.70;;;;;;5025612;28;20023;-64
2022/10/03 03:55:47;;;;;;;;;;;10.90;89.40;;;;;;5040998;28;20382;-64
2022/10/03 03:58:22;;;;;;;;;;;10.90;89.50;;;;;;5036503;28;19940;-63
2022/10/03 04:01:07;;;;;;;;;;;10.80;89.50;;;;;;5042764;28;20319;-63
2022/10/03 04:03:42;;;;;;;;;;;10.90;89.60;;;;;;5009264;28;19929;-63
2022/10/03 04:06:25;;;;;;;;;;;10.90;89.50;;;;;;5020295;28;19960;-64
2022/10/03 04:09:06;;;;;;;;;;;10.80;89.60;;;;;;5026944;28;19929;-62
2022/10/03 04:11:38;;;;;;;;;;;10.80;89.60;;;;;;5018910;28;20398;-63
2022/10/03 04:14:23;;;;;;;;;;;10.80;89.60;;;;;;5019949;28;19929;-63
2022/10/03 04:19:55;;;;;;;;;;;10.80;89.70;;;;;;5017491;28;19925;-63
2022/10/03 04:22:28;;;;;;;;;;;10.80;89.60;;;;;;5023023;28;19931;-62
2022/10/03 04:25:09;;;;;;;;;;;10.80;89.70;;;;;;5015067;28;20465;-63
2022/10/03 04:27:49;;;;;;;;;;;10.70;89.80;;;;;;5018167;28;19933;-62
2022/10/03 04:30:18;;;;;;;;;;;10.70;89.90;;;;;;5016428;28;19933;-63
2022/10/03 04:32:52;;;;;;;;;;;10.70;89.90;;;;;;5024395;28;20051;-63
2022/10/03 04:35:29;;;;;;;;;;;10.70;89.90;;;;;;5019655;28;20359;-62
2022/10/03 04:38:00;;;;;;;;;;;10.70;89.90;;;;;;5025322;28;20405;-63
2022/10/03 04:40:32;;;;;;;;;;;10.70;89.90;;;;;;5017410;28;20287;-62
2022/10/03 04:43:04;;;;;;;;;;;10.70;89.80;;;;;;5016354;28;19925;-62
2022/10/03 04:45:38;;;;;;;;;;;10.70;89.80;;;;;;5009082;28;20024;-63
2022/10/03 04:48:11;;;;;;;;;;;10.60;89.90;;;;;;5011773;28;19937;-63
2022/10/03 04:50:40;;;;;;;;;;;10.60;90.10;;;;;;5031270;28;19987;-63
2022/10/03 04:53:17;;;;;;;;;;;10.70;89.90;;;;;;5039264;28;19925;-63
2022/10/03 04:55:47;;;;;;;;;;;10.60;89.80;;;;;;5033364;28;20382;-62
2022/10/03 04:58:19;;;;;;;;;;;10.60;89.70;;;;;;5042094;28;19931;-63
2022/10/03 05:00:57;;;;;;;;;;;10.60;89.60;;;;;;5034893;28;19932;-63
2022/10/03 05:03:28;;;;;;;;;;;10.50;89.60;;;;;;5031760;28;19936;-63
2022/10/03 05:05:57;;;;;;;;;;;10.50;89.50;;;;;;5036297;28;20406;-63
2022/10/03 05:08:33;;;;;;;;;;;10.50;89.60;;;;;;5040508;28;19929;-64
2022/10/03 05:11:09;;;;;;;;;;;10.50;89.50;;;;;;5039576;28;19944;-63
2022/10/03 05:13:46;;;;;;;;;;;10.60;89.40;;;;;;5038696;28;20649;-64
2022/10/03 05:16:17;;;;;;;;;;;10.60;89.40;;;;;;5040130;28;19933;-63
2022/10/03 05:18:47;;;;;;;;;;;10.50;89.30;;;;;;5041079;28;19925;-63
2022/10/03 05:21:15;;;;;;;;;;;10.50;89.30;;;;;;5036259;28;19931;-61
2022/10/03 05:23:50;;;;;;;;;;;10.50;89.30;;;;;;5043869;28;19935;-63
2022/10/03 05:26:22;;;;;;;;;;;10.50;89.30;;;;;;5037694;28;19972;-61
2022/10/03 05:28:53;;;;;;;;;;;10.50;89.20;;;;;;5037107;28;20028;-63
2022/10/03 05:31:26;;;;;;;;;;;10.40;89.20;;;;;;5034139;28;20374;-63
2022/10/03 05:34:01;;;;;;;;;;;10.40;89.20;;;;;;5039562;28;19928;-62
2022/10/03 05:36:30;;;;;;;;;;;10.40;89.40;;;;;;5030697;28;20012;-63
2022/10/03 05:39:16;;;;;;;;;;;10.50;89.20;;;;;;5036255;28;19929;-62
2022/10/03 05:41:50;;;;;;;;;;;10.50;89.20;;;;;;5042705;28;19925;-63
2022/10/03 05:44:19;;;;;;;;;;;10.50;89.20;;;;;;5037183;28;19925;-62
2022/10/03 05:46:56;;;;;;;;;;;10.40;89.40;;;;;;5035220;28;19936;-62
2022/10/03 05:49:33;;;;;;;;;;;10.40;89.20;;;;;;5020737;28;19933;-62
2022/10/03 05:52:11;;;;;;;;;;;10.40;89.40;;;;;;5035876;28;19928;-62
2022/10/03 05:54:52;;;;;;;;;;;10.40;89.40;;;;;;5032185;28;19924;-62
2022/10/03 05:57:30;;;;;;;;;;;10.40;89.30;;;;;;5046904;28;19929;-63
2022/10/03 06:00:06;;;;;;;;;;;10.40;89.30;;;;;;5046505;28;19929;-62
2022/10/03 06:02:51;;;;;;;;;;;10.40;89.30;;;;;;5041356;28;19936;-61
2022/10/03 06:05:29;;;;;;;;;;;10.40;89.40;;;;;;5037624;28;19972;-62
2022/10/03 06:08:06;;;;;;;;;;;10.50;89.50;;;;;;5040722;28;19944;-62
2022/10/03 06:10:45;;;;;;;;;;;10.60;89.40;;;;;;5024585;28;19940;-63
2022/10/03 06:13:15;;;;;;;;;;;10.60;89.40;;;;;;5038010;28;19929;-62
2022/10/03 06:15:53;;;;;;;;;;;10.60;89.40;;;;;;5025700;28;19944;-62
2022/10/03 06:18:37;;;;;;;;;;;10.60;89.40;;;;;;5006896;28;19929;-61
2022/10/03 06:21:23;;;;;;;;;;;10.60;89.50;;;;;;5005307;28;19926;-62
2022/10/03 06:24:08;;;;;;;;;;;10.60;89.60;;;;;;5016354;28;19952;-61
2022/10/03 06:26:45;;;;;;;;;;;10.60;89.70;;;;;;5020573;28;19933;-61
2022/10/03 06:29:30;;;;;;;;;;;10.60;89.40;;;;;;5019534;28;19932;-63
2022/10/03 06:32:15;;;;;;;;;;;10.60;89.50;;;;;;5022631;28;19979;-72
2022/10/03 06:34:52;;;;;;;;;;;10.70;89.50;;;;;;5014698;28;22154;-70
2022/10/03 06:37:38;;;;;;;;;;;10.70;89.50;;;;;;5019265;28;19937;-73
2022/10/03 06:40:20;;;;;;;;;;;10.70;89.50;;;;;;5018223;28;19937;-71
2022/10/03 06:42:56;;;;;;;;;;;10.80;89.50;;;;;;5010507;28;19925;-72
2022/10/03 06:45:34;;;;;;;;;;;10.70;89.60;;;;;;5016748;28;19960;-71
2022/10/03 06:48:08;;;;;;;;;;;10.80;89.50;;;;;;5021459;28;19925;-70
2022/10/03 06:50:45;;;;;;;;;;;10.90;89.40;;;;;;5020979;28;20727;-71
2022/10/03 06:53:36;;;;;;;;;;;10.90;89.30;;;;;;5007931;28;19943;-71
2022/10/03 06:56:09;;;;;;;;;;;10.90;89.30;;;;;;5024431;28;19979;-72
2022/10/03 06:58:43;;;;;;;;;;;10.90;89.40;;;;;;5015017;28;19941;-70
2022/10/03 07:01:29;;;;;;;;;;;10.90;89.40;;;;;;5020428;28;19935;-71
2022/10/03 07:04:23;;;;;;;;;;;10.90;89.40;;;;;;5013327;28;19933;-71
2022/10/03 07:07:10;;;;;;;;;;;11.00;89.50;;;;;;5019867;28;19983;-71
2022/10/03 07:09:52;;;;;;;;;;;11.00;89.40;;;;;;5026421;28;19935;-69
2022/10/03 07:12:37;;;;;;;;;;;11.00;89.40;;;;;;5037665;28;19936;-71
2022/10/03 07:15:21;;;;;;;;;;;11.10;89.50;;;;;;5031552;28;19956;-69
2022/10/03 07:17:57;;;;;;;;;;;11.10;89.00;;;;;;5038305;28;19932;-72
2022/10/03 07:20:47;;;;;;;;;;;11.10;89.30;;;;;;5039070;28;19925;-71
2022/10/03 07:23:41;;;;;;;;;;;11.10;89.40;;;;;;5037410;28;19931;-70
2022/10/03 07:26:26;;;;;;;;;;;11.10;89.40;;;;;;5038896;28;19925;-70
2022/10/03 07:29:07;;;;;;;;;;;11.10;89.30;;;;;;5037768;28;19933;-70
2022/10/03 07:31:42;;;;;;;;;;;11.20;89.20;;;;;;5025957;28;19929;-71
2022/10/03 07:34:32;;;;;;;;;;;11.20;88.90;;;;;;5036807;28;19936;-69
2022/10/03 07:40:22;;;;;;;;;;;11.30;89.30;;;;;;5039882;28;19932;-73
2022/10/03 07:43:22;;;;;;;;;;;11.30;89.30;;;;;;5031506;28;19931;-71
2022/10/03 07:46:03;;;;;;;;;;;11.40;89.30;;;;;;5019512;28;19987;-70
2022/10/03 07:48:54;;;;;;;;;;;11.40;89.20;;;;;;5022686;28;19948;-72
2022/10/03 07:51:29;;;;;;;;;;;11.50;89.30;;;;;;5024126;28;19925;-70
2022/10/03 07:54:23;;;;;;;;;;;11.50;89.20;;;;;;5020622;28;19940;-70
2022/10/03 07:56:56;;;;;;;;;;;11.50;89.30;;;;;;5026693;28;19925;-72
2022/10/03 07:59:46;;;;;;;;;;;11.60;89.20;;;;;;5017679;28;19929;-68
2022/10/03 08:02:25;;;;;;;;;;;11.60;89.30;;;;;;5003502;28;20376;-70
2022/10/03 08:05:10;;;;;;;;;;;11.60;89.40;;;;;;5042966;28;20021;-71
2022/10/03 08:07:46;;;;;;;;;;;11.60;89.30;;;;;;5034669;28;19933;-72
2022/10/03 08:10:19;;;;;;;;;;;11.60;89.50;;;;;;5040584;28;19925;-71
2022/10/03 08:13:16;;;;;;;;;;;11.70;89.40;;;;;;5036090;28;19933;-70
2022/10/03 08:15:52;;;;;;;;;;;11.70;89.40;;;;;;4973519;28;19980;-71
2022/10/03 08:18:36;;;;;;;;;;;11.80;89.40;;;;;;5018116;28;19929;-71
2022/10/03 08:21:09;;;;;;;;;;;11.80;89.40;;;;;;5037640;28;19929;-73
2022/10/03 08:23:57;;;;;;;;;;;11.80;89.40;;;;;;5032265;28;19929;-72
2022/10/03 08:26:29;;;;;;;;;;;11.90;89.40;;;;;;5026072;28;19929;-69
2022/10/03 08:29:07;;;;;;;;;;;12.00;89.40;;;;;;5018621;28;19933;-70
2022/10/03 08:31:47;;;;;;;;;;;12.00;89.30;;;;;;5017470;28;19932;-71
2022/10/03 08:34:23;;;;;;;;;;;12.10;89.30;;;;;;5026184;28;20446;-70
2022/10/03 08:37:02;;;;;;;;;;;12.10;89.10;;;;;;5016296;28;20028;-71
2022/10/03 08:39:44;;;;;;;;;;;12.20;89.10;;;;;;5033100;28;19933;-71
2022/10/03 08:42:34;;;;;;;;;;;12.20;89.10;;;;;;5018473;28;19948;-69
2022/10/03 08:45:20;;;;;;;;;;;12.20;89.10;;;;;;5041497;28;19932;-70
2022/10/03 08:48:08;;;;;;;;;;;12.30;89.10;;;;;;5026181;28;19939;-70
2022/10/03 08:50:54;;;;;;;;;;;12.40;89.10;;;;;;5021941;28;19936;-72
2022/10/03 08:53:39;;;;;;;;;;;12.40;88.90;;;;;;5025782;28;19941;-71
2022/10/03 08:56:12;;;;;;;;;;;12.50;88.70;;;;;;5021043;28;20414;-70
2022/10/03 08:59:03;;;;;;;;;;;12.50;88.70;;;;;;5022621;28;19979;-70
2022/10/03 09:01:47;;;;;;;;;;;12.60;88.60;;;;;;5018248;28;20383;-72
2022/10/03 09:04:39;;;;;;;;;;;12.60;88.60;;;;;;5040837;28;19935;-71
2022/10/03 09:07:15;;;;;;;;;;;12.70;88.60;;;;;;5032244;28;19933;-71
2022/10/03 09:10:00;;;;;;;;;;;12.70;88.50;;;;;;5032088;28;19972;-73
2022/10/03 09:12:51;;;;;;;;;;;12.70;88.50;;;;;;5024139;28;20359;-70
2022/10/03 09:15:33;;;;;;;;;;;12.80;88.40;;;;;;5013488;28;19939;-71
2022/10/03 09:18:09;;;;;;;;;;;12.80;88.40;;;;;;5015976;28;19991;-71
2022/10/03 09:20:47;;;;;;;;;;;12.90;88.30;;;;;;5023685;28;19929;-72
2022/10/03 09:23:24;;;;;;;;;;;12.90;88.30;;;;;;5031479;28;19929;-69
2022/10/03 09:26:10;;;;;;;;;;;13.00;88.40;;;;;;5039891;28;19925;-70
2022/10/03 09:28:48;;;;;;;;;;;13.10;88.40;;;;;;5036702;28;19956;-70
2022/10/03 09:31:22;;;;;;;;;;;13.10;88.30;;;;;;5043142;28;19925;-72
2022/10/03 09:34:07;;;;;;;;;;;13.20;88.00;;;;;;5040425;28;19929;-71
2022/10/03 09:37:01;;;;;;;;;;;13.20;87.80;;;;;;5033142;28;19925;-71
2022/10/03 09:39:44;;;;;;;;;;;13.20;87.80;;;;;;5044845;28;20280;-70
2022/10/03 09:42:28;;;;;;;;;;;13.20;87.80;;;;;;5037139;28;19928;-71
2022/10/03 09:45:12;;;;;;;;;;;13.30;87.70;;;;;;5028477;28;19925;-73
2022/10/03 09:48:00;;;;;;;;;;;13.30;87.40;;;;;;5044231;28;19924;-71
2022/10/03 09:50:51;;;;;;;;;;;13.40;87.40;;;;;;5041155;28;19933;-71
2022/10/03 09:53:30;;;;;;;;;;;13.40;87.30;;;;;;5037169;28;19951;-72
2022/10/03 09:56:10;;;;;;;;;;;13.50;87.10;;;;;;5045100;28;20313;-71
2022/10/03 09:58:45;;;;;;;;;;;13.50;86.80;;;;;;5036662;28;19936;-70
2022/10/03 10:01:17;;;;;;;;;;;13.60;86.90;;;;;;5035512;28;19937;-71
2022/10/03 10:04:02;;;;;;;;;;;13.70;86.60;;;;;;5039406;28;20015;-69
2022/10/03 10:06:44;;;;;;;;;;;13.70;86.50;;;;;;5044487;28;19990;-70
2022/10/03 10:09:30;;;;;;;;;;;13.80;86.20;;;;;;5041843;28;19925;-71
2022/10/03 10:12:13;;;;;;;;;;;13.80;86.10;;;;;;5041330;28;19933;-72
2022/10/03 10:14:45;;;;;;;;;;;13.90;85.90;;;;;;5043199;28;20297;-69
2022/10/03 10:17:33;;;;;;;;;;;13.90;86.10;;;;;;5036649;28;19933;-70
2022/10/03 10:20:10;;;;;;;;;;;13.90;85.80;;;;;;5024152;28;19928;-71
2022/10/03 10:23:06;;;;;;;;;;;13.90;85.70;;;;;;5038693;28;20373;-72
2022/10/03 10:25:42;;;;;;;;;;;14.00;85.70;;;;;;4997871;28;19940;-71
2022/10/03 10:28:26;;;;;;;;;;;14.20;85.80;;;;;;5041691;28;19929;-70
2022/10/03 10:31:21;;;;;;;;;;;14.20;85.30;;;;;;5040869;28;20389;-70
2022/10/03 10:34:15;;;;;;;;;;;14.30;85.10;;;;;;5037701;28;19936;-72
2022/10/03 10:37:03;;;;;;;;;;;14.30;85.20;;;;;;5007517;28;19926;-70
2022/10/03 10:39:40;;;;;;;;;;;14.40;85.20;;;;;;5015973;28;19935;-71
2022/10/03 10:42:25;;;;;;;;;;;14.50;84.90;;;;;;5028721;28;19936;-69
2022/10/03 10:45:13;;;;;;;;;;;14.60;84.40;;;;;;5013910;28;20035;-70
2022/10/03 10:48:09;;;;;;;;;;;14.60;84.00;;;;;;5044445;28;19924;-70
2022/10/03 10:50:55;;;;;;;;;;;14.60;84.30;;;;;;5040934;28;19928;-71
2022/10/03 10:53:46;;;;;;;;;;;14.60;84.10;;;;;;5043269;28;19971;-70
2022/10/03 10:56:26;;;;;;;;;;;14.60;84.30;;;;;;5031683;28;20015;-72
2022/10/03 10:59:11;;;;;;;;;;;14.60;84.10;;;;;;5041133;28;19971;-70
2022/10/03 11:01:56;;;;;;;;;;;14.60;84.00;;;;;;5008944;28;19928;-71
2022/10/03 11:04:41;;;;;;;;;;;14.60;84.10;;;;;;5042645;28;19929;-70
2022/10/03 11:07:29;;;;;;;;;;;14.70;83.90;;;;;;5047131;28;19940;-72
2022/10/03 11:10:17;;;;;;;;;;;14.80;83.30;;;;;;5036337;28;19925;-72
2022/10/03 11:13:05;;;;;;;;;;;14.80;83.50;;;;;;5039690;28;19925;-71
2022/10/03 11:15:54;;;;;;;;;;;14.90;83.70;;;;;;5032379;28;19937;-69
2022/10/03 11:18:42;;;;;;;;;;;14.90;83.30;;;;;;5040826;28;19925;-70
2022/10/03 11:21:36;;;;;;;;;;;15.00;82.90;;;;;;5038501;28;19969;-72
2022/10/03 11:24:19;;;;;;;;;;;15.10;83.00;;;;;;5042330;28;19925;-69
2022/10/03 11:27:20;;;;;;;;;;;15.00;83.00;;;;;;5009250;28;20319;-70
2022/10/03 11:30:17;;;;;;;;;;;15.10;82.80;;;;;;5018590;28;19975;-69
2022/10/03 11:33:04;;;;;;;;;;;15.10;82.60;;;;;;5033142;28;20371;-70
2022/10/03 11:35:58;;;;;;;;;;;15.00;82.10;;;;;;5019482;28;20031;-69
2022/10/03 11:38:28;;;;;;;;;;;15.00;81.70;;;;;;4990446;28;19936;-71
2022/10/03 11:40:58;;;;;;;;;;;15.00;81.90;;;;;;5021944;28;20024;-68
2022/10/03 11:43:43;;;;;;;;;;;15.00;82.20;;;;;;5036020;28;19928;-70
2022/10/03 11:46:19;;;;;;;;;;;15.00;81.80;;;;;;5033684;28;19987;-69
2022/10/03 11:48:51;;;;;;;;;;;15.10;81.50;;;;;;5040438;28;19936;-71
2022/10/03 11:51:22;;;;;;;;;;;15.10;81.20;;;;;;5033936;28;20006;-72
2022/10/03 11:53:53;;;;;;;;;;;15.10;81.80;;;;;;5042433;28;19925;-73
2022/10/03 11:56:32;;;;;;;;;;;15.10;81.10;;;;;;5047159;28;19972;-69
2022/10/03 11:59:14;;;;;;;;;;;15.10;80.60;;;;;;5022463;28;20367;-72
2022/10/03 12:01:48;;;;;;;;;;;15.10;81.00;;;;;;5037201;28;19925;-69
2022/10/03 12:04:20;;;;;;;;;;;15.10;80.60;;;;;;5045459;28;19924;-70
2022/10/03 12:09:46;;;;;;;;;;;15.10;80.30;;;;;;5040743;28;19944;-71
2022/10/03 12:12:21;;;;;;;;;;;15.10;79.80;;;;;;5041482;28;20444;-71
2022/10/03 12:14:49;;;;;;;;;;;15.10;80.00;;;;;;5044322;28;19925;-71
2022/10/03 12:17:17;;;;;;;;;;;15.10;79.40;;;;;;5028898;28;19933;-71
2022/10/03 12:19:48;;;;;;;;;;;15.10;78.80;;;;;;5045135;28;19929;-72
2022/10/03 12:22:24;;;;;;;;;;;15.10;78.10;;;;;;5025806;28;19925;-70
2022/10/03 12:25:01;;;;;;;;;;;15.00;77.80;;;;;;5032965;28;19924;-70
2022/10/03 12:27:40;;;;;;;;;;;15.10;76.70;;;;;;5013452;28;19929;-70
2022/10/03 12:30:13;;;;;;;;;;;15.10;77.10;;;;;;5015697;28;19935;-71
2022/10/03 12:32:47;;;;;;;;;;;15.10;76.80;;;;;;5018110;28;19933;-72
2022/10/03 12:35:21;;;;;;;;;;;15.10;75.10;;;;;;5020540;28;20391;-72
2022/10/03 12:38:02;;;;;;;;;;;15.10;73.60;;;;;;5020556;28;20383;-70
2022/10/03 12:40:33;;;;;;;;;;;15.10;73.40;;;;;;5021655;28;19925;-71
2022/10/03 12:43:04;;;;;;;;;;;15.10;73.60;;;;;;5014800;28;19929;-71
2022/10/03 12:45:34;;;;;;;;;;;15.10;73.70;;;;;;5022674;28;19932;-70
2022/10/03 12:48:14;;;;;;;;;;;15.10;72.30;;;;;;5024959;28;20102;-71
2022/10/03 12:50:46;;;;;;;;;;;15.10;71.40;;;;;;5023428;28;19929;-69
2022/10/03 12:53:37;;;;;;;;;;;15.10;73.40;;;;;;5018238;28;19925;-72
2022/10/03 12:56:10;;;;;;;;;;;15.10;73.50;;;;;;5019262;28;19940;-71
2022/10/03 12:58:47;;;;;;;;;;;15.20;72.70;;;;;;5022539;28;20060;-71
2022/10/03 13:01:18;;;;;;;;;;;15.20;72.60;;;;;;5012998;28;19925;-71
2022/10/03 13:03:50;;;;;;;;;;;15.30;71.70;;;;;;5022186;28;19925;-72
2022/10/03 13:06:29;;;;;;;;;;;15.30;73.00;;;;;;5027497;28;19925;-70
2022/10/03 13:09:11;;;;;;;;;;;15.40;73.30;;;;;;5016262;28;20307;-71
2022/10/03 13:11:46;;;;;;;;;;;15.50;71.90;;;;;;5016200;28;19929;-71
2022/10/03 13:14:22;;;;;;;;;;;15.50;72.10;;;;;;5013705;28;19925;-72
2022/10/03 13:16:54;;;;;;;;;;;15.50;71.80;;;;;;5021199;28;19947;-70
2022/10/03 13:19:22;;;;;;;;;;;15.50;70.80;;;;;;5027165;28;19929;-71
2022/10/03 13:21:54;;;;;;;;;;;15.40;71.00;;;;;;5026329;28;20458;-71
2022/10/03 13:24:27;;;;;;;;;;;15.50;71.00;;;;;;5029211;28;19926;-71
2022/10/03 13:27:04;;;;;;;;;;;15.60;70.50;;;;;;5028955;28;19929;-71
2022/10/03 13:29:37;;;;;;;;;;;15.50;70.40;;;;;;5014932;28;19925;-72
2022/10/03 13:32:07;;;;;;;;;;;15.60;71.20;;;;;;5022492;28;19929;-69
2022/10/03 13:34:36;;;;;;;;;;;15.50;71.30;;;;;;5023984;28;20020;-71
2022/10/03 13:37:05;;;;;;;;;;;15.50;71.50;;;;;;5018352;28;19933;-68
2022/10/03 13:39:41;;;;;;;;;;;15.50;72.10;;;;;;5020145;28;20306;-70
2022/10/03 13:42:14;;;;;;;;;;;15.40;71.70;;;;;;5023590;28;19936;-70
2022/10/03 13:44:42;;;;;;;;;;;15.40;71.50;;;;;;5019188;28;19975;-70
2022/10/03 13:47:18;;;;;;;;;;;15.30;71.50;;;;;;5030409;28;19929;-70
2022/10/03 13:49:50;;;;;;;;;;;15.30;71.20;;;;;;5038212;28;20024;-71
2022/10/03 13:52:20;;;;;;;;;;;15.20;71.40;;;;;;5046431;28;19937;-69
2022/10/03 13:55:04;;;;;;;;;;;15.20;71.40;;;;;;5037380;28;20358;-71
2022/10/03 13:57:35;;;;;;;;;;;15.20;71.90;;;;;;5042044;28;20008;-70
2022/10/03 14:00:08;;;;;;;;;;;15.10;72.40;;;;;;5047502;28;20413;-71
2022/10/03 14:02:53;;;;;;;;;;;15.10;72.50;;;;;;5043150;28;19935;-70
2022/10/03 14:05:34;;;;;;;;;;;15.10;73.30;;;;;;5033576;28;19931;-69
2022/10/03 14:08:07;;;;;;;;;;;15.10;73.80;;;;;;5040981;28;19931;-71
2022/10/03 14:10:41;;;;;;;;;;;15.10;74.00;;;;;;5031438;28;19975;-70
2022/10/03 14:13:18;;;;;;;;;;;15.20;74.00;;;;;;5032062;28;19928;-71
2022/10/03 14:15:52;;;;;;;;;;;15.20;73.30;;;;;;5044577;28;19928;-71
2022/10/03 14:18:33;;;;;;;;;;;15.30;72.90;;;;;;5013466;28;19933;-69
2022/10/03 14:21:18;;;;;;;;;;;15.30;73.00;;;;;;5037438;28;20429;-70
2022/10/03 14:23:48;;;;;;;;;;;15.30;73.30;;;;;;5019001;28;20386;-72
2022/10/03 14:26:18;;;;;;;;;;;15.30;73.30;;;;;;5021190;28;19929;-71
2022/10/03 14:28:49;;;;;;;;;;;15.30;72.70;;;;;;5018451;28;20443;-72
2022/10/03 14:31:17;;;;;;;;;;;15.30;72.70;;;;;;5029005;28;20268;-70
2022/10/03 14:33:48;;;;;;;;;;;15.30;72.70;;;;;;5029171;28;19925;-71
2022/10/03 14:36:22;;;;;;;;;;;15.20;72.80;;;;;;5019496;28;20020;-69
2022/10/03 14:38:59;;;;;;;;;;;15.20;73.10;;;;;;5018131;28;19929;-71
2022/10/03 14:41:33;;;;;;;;;;;15.20;73.50;;;;;;5024138;28;19925;-70
2022/10/03 14:44:04;;;;;;;;;;;15.20;74.00;;;;;;5027420;28;19933;-72
2022/10/03 14:46:33;;;;;;;;;;;15.20;74.20;;;;;;5021581;28;19929;-70
2022/10/03 14:49:02;;;;;;;;;;;15.20;74.40;;;;;;5024952;28;19950;-72
2022/10/03 14:51:35;;;;;;;;;;;15.10;74.80;;;;;;5018500;28;19940;-71
2022/10/03 14:54:04;;;;;;;;;;;15.20;75.20;;;;;;5033041;28;19933;-69
2022/10/03 14:56:35;;;;;;;;;;;15.10;75.40;;;;;;5041237;28;19928;-69
2022/10/03 14:59:15;;;;;;;;;;;15.10;75.30;;;;;;5043613;28;19924;-71
2022/10/03 15:01:48;;;;;;;;;;;15.10;75.50;;;;;;5015343;28;20013;-71
2022/10/03 15:04:17;;;;;;;;;;;15.10;75.50;;;;;;5027819;28;19933;-70
2022/10/03 15:06:53;;;;;;;;;;;15.00;75.50;;;;;;5031488;28;19932;-69
2022/10/03 15:09:22;;;;;;;;;;;15.00;76.00;;;;;;5041935;28;19925;-69
2022/10/03 15:11:52;;;;;;;;;;;14.90;76.20;;;;;;5038419;28;20462;-70
2022/10/03 15:14:22;;;;;;;;;;;14.90;75.80;;;;;;5035525;28;19931;-71
2022/10/03 15:16:52;;;;;;;;;;;14.80;75.90;;;;;;5035826;28;19924;-70
2022/10/03 15:19:21;;;;;;;;;;;14.90;76.30;;;;;;5043899;28;20002;-70
2022/10/03 15:21:51;;;;;;;;;;;14.80;76.40;;;;;;5042650;28;19935;-72
2022/10/03 15:24:19;;;;;;;;;;;14.80;76.10;;;;;;5042754;28;19933;-70
2022/10/03 15:26:49;;;;;;;;;;;14.80;76.00;;;;;;5039058;28;19966;-72
2022/10/03 15:29:19;;;;;;;;;;;14.80;75.90;;;;;;5035436;28;20040;-70